createdAt,value
2023-03-22T00:02:05.811Z,9.98
2023-03-22T00:04:32.657Z,9.94
2023-03-22T00:06:59.359Z,9.93
2023-03-22T00:09:25.978Z,9.93
2023-03-22T00:11:52.577Z,9.91
2023-03-22T00:14:19.540Z,9.88
2023-03-22T00:16:46.405Z,9.87
2023-03-22T00:19:13.002Z,9.90
2023-03-22T00:21:39.514Z,9.94
2023-03-22T00:24:06.544Z,9.93
2023-03-22T00:26:34.616Z,9.88
2023-03-22T00:29:01.172Z,9.89
2023-03-22T00:31:28.910Z,9.89
2023-03-22T00:33:58.969Z,9.88
2023-03-22T00:36:25.751Z,9.88
2023-03-22T00:38:52.291Z,9.88
2023-03-22T00:41:22.324Z,9.90
2023-03-22T00:43:49.949Z,9.91
2023-03-22T00:46:19.415Z,9.93
2023-03-22T00:48:46.044Z,9.96
2023-03-22T00:51:13.882Z,9.96
2023-03-22T00:53:43.210Z,9.97
2023-03-22T00:56:13.854Z,9.98
2023-03-22T00:58:40.868Z,10.03
2023-03-22T01:01:07.470Z,10.02
2023-03-22T01:03:38.721Z,10.02
2023-03-22T01:06:05.677Z,10.03
2023-03-22T01:08:32.944Z,10.02
2023-03-22T01:11:01.151Z,10.03
2023-03-22T01:13:28.053Z,10.04
2023-03-22T01:15:54.580Z,10.01
2023-03-22T01:18:22.303Z,9.97
2023-03-22T01:20:48.767Z,9.92
2023-03-22T01:23:15.420Z,9.92
2023-03-22T01:25:41.935Z,9.93
2023-03-22T01:28:08.949Z,9.92
2023-03-22T01:30:35.580Z,9.95
2023-03-22T01:33:02.288Z,9.93
2023-03-22T01:35:28.933Z,9.92
2023-03-22T01:37:55.556Z,9.91
2023-03-22T01:40:22.103Z,9.90
2023-03-22T01:42:48.672Z,9.88
2023-03-22T01:45:15.378Z,9.86
2023-03-22T01:47:44.100Z,9.87
2023-03-22T01:50:10.898Z,9.88
2023-03-22T01:52:38.312Z,9.84
2023-03-22T01:55:06.545Z,9.84
2023-03-22T01:57:37.519Z,9.83
2023-03-22T02:00:12.182Z,9.81
2023-03-22T02:02:38.899Z,9.81
2023-03-22T02:05:05.770Z,9.81
2023-03-22T02:07:35.594Z,9.84
2023-03-22T02:10:02.061Z,9.81
2023-03-22T02:12:57.815Z,9.81
2023-03-22T02:15:55.880Z,9.83
2023-03-22T02:18:48.880Z,9.82
2023-03-22T02:21:49.049Z,9.82
2023-03-22T02:24:34.784Z,9.84
2023-03-22T02:27:10.525Z,9.87
2023-03-22T02:29:52.560Z,9.84
2023-03-22T02:32:27.958Z,9.83
2023-03-22T02:35:09.761Z,9.82
2023-03-22T02:38:17.470Z,9.83
2023-03-22T02:40:58.869Z,9.87
2023-03-22T02:43:41.592Z,9.85
2023-03-22T02:46:14.453Z,9.87
2023-03-22T02:49:16.300Z,9.84
2023-03-22T02:51:49.005Z,9.87
2023-03-22T02:54:26.255Z,9.86
2023-03-22T02:57:01.288Z,9.87
2023-03-22T02:59:32.000Z,9.87
2023-03-22T03:02:03.741Z,9.90
2023-03-22T03:04:37.840Z,9.91
2023-03-22T03:07:09.352Z,9.92
2023-03-22T03:09:39.189Z,9.91
2023-03-22T03:12:13.617Z,9.91
2023-03-22T03:14:40.243Z,9.91
2023-03-22T03:17:29.676Z,9.91
2023-03-22T03:20:08.570Z,9.92
2023-03-22T03:22:47.203Z,9.89
2023-03-22T03:25:21.020Z,9.90
2023-03-22T03:27:59.836Z,9.91
2023-03-22T03:30:35.445Z,9.88
2023-03-22T03:33:09.360Z,9.91
2023-03-22T03:35:44.016Z,9.90
2023-03-22T03:38:17.447Z,9.87
2023-03-22T03:40:48.580Z,9.84
2023-03-22T03:43:16.384Z,9.84
2023-03-22T03:45:43.016Z,9.84
2023-03-22T03:48:17.863Z,9.82
2023-03-22T03:50:44.937Z,9.81
2023-03-22T03:53:11.406Z,9.81
2023-03-22T03:55:37.989Z,9.84
2023-03-22T03:58:04.491Z,9.82
2023-03-22T04:00:31.161Z,9.82
2023-03-22T04:02:57.648Z,9.78
2023-03-22T04:05:24.132Z,9.78
2023-03-22T04:07:50.663Z,9.77
2023-03-22T04:10:17.316Z,9.80
2023-03-22T04:12:43.946Z,9.83
2023-03-22T04:15:12.255Z,9.80
2023-03-22T04:17:39.582Z,9.80
2023-03-22T04:20:09.552Z,9.82
2023-03-22T04:22:38.385Z,9.84
2023-03-22T04:25:11.657Z,9.85
2023-03-22T04:27:42.446Z,9.86
2023-03-22T04:30:11.239Z,9.86
2023-03-22T04:32:38.868Z,9.86
2023-03-22T04:35:05.869Z,9.88
2023-03-22T04:37:32.399Z,9.86
2023-03-22T04:39:59.344Z,9.87
2023-03-22T04:42:29.712Z,9.84
2023-03-22T04:44:56.160Z,9.82
2023-03-22T04:47:26.255Z,9.82
2023-03-22T04:49:52.736Z,9.76
2023-03-22T04:52:19.246Z,9.77
2023-03-22T04:54:45.741Z,9.75
2023-03-22T04:57:12.289Z,9.77
2023-03-22T04:59:38.800Z,9.80
2023-03-22T05:02:05.542Z,9.83
2023-03-22T05:04:32.280Z,9.83
2023-03-22T05:06:58.793Z,9.82
2023-03-22T05:09:25.434Z,9.84
2023-03-22T05:11:52.013Z,9.84
2023-03-22T05:14:18.502Z,9.82
2023-03-22T05:16:45.257Z,9.82
2023-03-22T05:19:14.294Z,9.81
2023-03-22T05:21:44.173Z,9.81
2023-03-22T05:24:11.475Z,9.78
2023-03-22T05:26:42.167Z,9.78
2023-03-22T05:29:11.706Z,9.81
2023-03-22T05:31:38.367Z,9.78
2023-03-22T05:34:04.938Z,9.76
2023-03-22T05:36:31.624Z,9.74
2023-03-22T05:38:58.143Z,9.72
2023-03-22T05:41:24.675Z,9.68
2023-03-22T05:43:51.165Z,9.71
2023-03-22T05:46:17.821Z,9.71
2023-03-22T05:48:44.435Z,9.71
2023-03-22T05:51:17.381Z,9.74
2023-03-22T05:53:45.457Z,9.73
2023-03-22T05:56:12.455Z,9.73
2023-03-22T05:58:39.759Z,9.72
2023-03-22T06:01:08.590Z,9.73
2023-03-22T06:03:35.484Z,9.70
2023-03-22T06:06:02.216Z,9.71
2023-03-22T06:08:29.049Z,9.72
2023-03-22T06:10:55.554Z,9.73
2023-03-22T06:13:22.174Z,9.73
2023-03-22T06:15:48.648Z,9.75
2023-03-22T06:18:15.483Z,9.78
2023-03-22T06:20:42.517Z,9.83
2023-03-22T06:23:09.082Z,9.90
2023-03-22T06:25:38.355Z,9.97
2023-03-22T06:28:07.500Z,10.02
2023-03-22T06:30:35.221Z,10.09
2023-03-22T06:33:05.384Z,10.10
2023-03-22T06:35:35.361Z,10.20
2023-03-22T06:38:02.048Z,10.27
2023-03-22T06:40:28.546Z,10.28
2023-03-22T06:42:55.027Z,10.27
2023-03-22T06:45:24.347Z,10.29
2023-03-22T06:47:50.993Z,10.29
2023-03-22T06:50:17.546Z,10.29
2023-03-22T06:52:44.070Z,10.29
2023-03-22T06:55:10.607Z,10.31
2023-03-22T06:57:37.125Z,10.34
2023-03-22T07:00:05.380Z,10.40
2023-03-22T07:02:31.940Z,10.47
2023-03-22T07:04:58.412Z,10.51
2023-03-22T07:07:24.878Z,10.53
2023-03-22T07:09:52.814Z,10.57
2023-03-22T07:12:19.258Z,10.61
2023-03-22T07:14:46.104Z,10.62
2023-03-22T07:17:14.091Z,10.62
2023-03-22T07:19:42.671Z,10.61
2023-03-22T07:22:09.408Z,10.60
2023-03-22T07:24:40.381Z,10.59
2023-03-22T07:27:11.184Z,10.59
2023-03-22T07:29:37.747Z,10.59
2023-03-22T07:32:04.476Z,10.61
2023-03-22T07:34:31.246Z,10.68
2023-03-22T07:36:57.771Z,10.77
2023-03-22T07:39:28.916Z,10.88
2023-03-22T07:41:56.003Z,10.93
2023-03-22T07:44:22.952Z,10.96
2023-03-22T07:46:51.670Z,11.04
2023-03-22T07:49:18.813Z,11.06
2023-03-22T07:51:47.982Z,11.07
2023-03-22T07:54:30.563Z,11.03
2023-03-22T07:56:59.358Z,11.03
2023-03-22T07:59:25.936Z,11.10
2023-03-22T08:01:52.553Z,11.16
2023-03-22T08:04:20.931Z,11.29
2023-03-22T08:06:47.565Z,11.43
2023-03-22T08:09:14.073Z,11.58
2023-03-22T08:11:40.572Z,11.63
2023-03-22T08:14:07.057Z,11.61
2023-03-22T08:16:33.852Z,11.66
2023-03-22T08:19:00.728Z,11.83
2023-03-22T08:21:27.493Z,11.92
2023-03-22T08:23:54.384Z,11.90
2023-03-22T08:26:22.144Z,11.94
2023-03-22T08:28:48.774Z,11.95
2023-03-22T08:31:17.351Z,11.83
2023-03-22T08:33:44.853Z,11.78
2023-03-22T08:36:14.478Z,11.89
2023-03-22T08:38:42.444Z,12.17
2023-03-22T08:41:09.132Z,12.39
2023-03-22T08:43:35.594Z,12.52
2023-03-22T08:46:05.245Z,12.62
2023-03-22T08:48:31.865Z,12.79
2023-03-22T08:50:58.516Z,12.78
2023-03-22T08:53:25.122Z,12.58
2023-03-22T08:55:51.647Z,12.51
2023-03-22T08:58:19.983Z,12.50
2023-03-22T09:00:49.449Z,12.64
2023-03-22T09:03:17.214Z,12.78
2023-03-22T09:05:43.919Z,12.84
2023-03-22T09:08:18.547Z,12.90
2023-03-22T09:10:51.161Z,12.95
2023-03-22T09:13:18.340Z,13.02
2023-03-22T09:15:45.228Z,13.04
2023-03-22T09:18:12.139Z,12.95
2023-03-22T09:20:39.035Z,12.94
2023-03-22T09:23:06.571Z,13.22
2023-03-22T09:25:33.238Z,13.71
2023-03-22T09:27:59.737Z,14.01
2023-03-22T09:30:27.212Z,14.16
2023-03-22T09:32:54.198Z,14.08
2023-03-22T09:35:20.852Z,13.62
2023-03-22T09:37:49.399Z,13.44
2023-03-22T09:40:17.441Z,13.37
2023-03-22T09:42:47.590Z,13.35
2023-03-22T09:45:20.613Z,13.24
2023-03-22T09:47:51.107Z,13.21
2023-03-22T09:50:23.777Z,13.23
2023-03-22T09:52:51.070Z,13.27
2023-03-22T09:55:21.836Z,13.35
2023-03-22T09:58:23.290Z,13.38
2023-03-22T10:01:01.527Z,13.40
2023-03-22T10:03:49.850Z,13.37
2023-03-22T10:06:23.016Z,13.33
2023-03-22T10:09:11.129Z,13.23
2023-03-22T10:11:53.400Z,13.17
2023-03-22T10:14:30.967Z,13.07
2023-03-22T10:17:00.529Z,13.10
2023-03-22T10:19:58.996Z,13.29
2023-03-22T10:22:33.029Z,13.67
2023-03-22T10:25:00.942Z,13.89
2023-03-22T10:27:31.578Z,13.72
2023-03-22T10:30:18.372Z,13.51
2023-03-22T10:32:57.801Z,13.32
2023-03-22T10:35:25.292Z,13.31
2023-03-22T10:37:52.902Z,13.29
2023-03-22T10:40:29.725Z,13.33
2023-03-22T10:43:00.988Z,13.46
2023-03-22T10:45:28.330Z,13.51
2023-03-22T10:48:05.653Z,13.46
2023-03-22T10:50:36.539Z,13.44
2023-03-22T10:53:06.908Z,13.39
2023-03-22T10:55:41.054Z,13.29
2023-03-22T10:58:19.552Z,13.29
2023-03-22T11:00:56.871Z,13.48
2023-03-22T11:03:28.266Z,13.60
2023-03-22T11:06:02.889Z,13.75
2023-03-22T11:08:29.530Z,13.87
2023-03-22T11:11:00.187Z,13.89
2023-03-22T11:13:27.097Z,14.11
2023-03-22T11:16:02.293Z,13.96
2023-03-22T11:18:32.209Z,13.85
2023-03-22T11:21:04.428Z,13.81
2023-03-22T11:23:34.862Z,13.55
2023-03-22T11:26:29.464Z,13.57
2023-03-22T11:29:04.931Z,13.64
2023-03-22T11:31:51.240Z,13.55
2023-03-22T11:34:22.910Z,13.51
2023-03-22T11:36:56.612Z,13.43
2023-03-22T11:39:26.512Z,13.28
2023-03-22T11:41:57.583Z,13.22
2023-03-22T11:44:27.043Z,13.28
2023-03-22T11:47:00.541Z,13.30
2023-03-22T11:49:52.498Z,13.26
2023-03-22T11:52:23.511Z,13.25
2023-03-22T11:54:51.195Z,13.23
2023-03-22T11:57:23.431Z,13.16
2023-03-22T12:00:08.081Z,13.19
2023-03-22T12:02:40.960Z,13.12
2023-03-22T12:05:27.246Z,13.11
2023-03-22T12:08:11.740Z,13.12
2023-03-22T12:10:48.368Z,13.11
2023-03-22T12:13:44.089Z,13.08
2023-03-22T12:16:14.067Z,13.13
2023-03-22T12:18:48.619Z,13.13
2023-03-22T12:21:15.852Z,13.17
2023-03-22T12:23:42.844Z,13.27
2023-03-22T12:26:12.401Z,13.34
2023-03-22T12:28:50.667Z,13.40
2023-03-22T12:31:46.499Z,13.39
2023-03-22T12:34:19.225Z,13.36
2023-03-22T12:36:54.315Z,13.35
2023-03-22T12:39:35.046Z,13.45
2023-03-22T12:42:10.844Z,13.54
2023-03-22T12:44:44.874Z,13.58
2023-03-22T12:47:30.644Z,13.60
2023-03-22T12:50:03.909Z,13.65
2023-03-22T12:52:46.197Z,13.61
2023-03-22T12:55:18.991Z,13.56
2023-03-22T12:57:51.216Z,13.52
2023-03-22T13:00:27.653Z,13.55
2023-03-22T13:03:17.572Z,13.50
2023-03-22T13:05:47.287Z,13.45
2023-03-22T13:08:20.034Z,13.41
2023-03-22T13:10:49.176Z,13.43
2023-03-22T13:13:17.434Z,13.40
2023-03-22T13:15:57.620Z,13.42
2023-03-22T13:18:36.396Z,13.55
2023-03-22T13:21:16.541Z,13.62
2023-03-22T13:24:07.458Z,13.78
2023-03-22T13:26:39.708Z,13.88
2023-03-22T13:29:18.645Z,13.97
2023-03-22T13:31:50.981Z,14.16
2023-03-22T13:34:31.866Z,14.32
2023-03-22T13:37:03.608Z,14.40
2023-03-22T13:39:36.065Z,14.40
2023-03-22T13:42:08.442Z,14.30
2023-03-22T13:44:43.009Z,14.23
2023-03-22T13:47:29.801Z,14.20
2023-03-22T13:50:23.596Z,14.13
2023-03-22T13:53:00.125Z,14.04
2023-03-22T13:55:51.836Z,13.95
2023-03-22T13:58:36.028Z,13.82
2023-03-22T14:01:13.529Z,13.77
2023-03-22T14:03:46.412Z,13.71
2023-03-22T14:06:25.670Z,13.70
2023-03-22T14:09:02.362Z,13.73
2023-03-22T14:11:52.938Z,13.78
2023-03-22T14:14:25.902Z,13.78
2023-03-22T14:16:58.523Z,13.80
2023-03-22T14:19:31.622Z,13.79
